createdAt,value
2019-05-18T00:03:15.464Z,13.10
2019-05-18T00:09:21.453Z,15.13
2019-05-18T00:15:27.417Z,14.27
2019-05-18T00:21:33.674Z,14.87
2019-05-18T00:27:39.567Z,13.33
2019-05-18T00:33:45.394Z,14.10
2019-05-18T00:39:51.116Z,15.40
2019-05-18T00:45:56.972Z,14.27
2019-05-18T00:52:02.917Z,14.37
2019-05-18T00:58:08.871Z,13.33
2019-05-18T01:04:14.729Z,13.57
2019-05-18T01:10:20.544Z,12.17
2019-05-18T01:16:28.314Z,12.80
2019-05-18T01:22:34.085Z,13.77
2019-05-18T01:28:39.939Z,13.17
2019-05-18T01:34:45.812Z,12.47
2019-05-18T01:40:51.546Z,14.03
2019-05-18T01:46:58.595Z,13.43
2019-05-18T01:53:04.869Z,14.03
2019-05-18T01:59:10.656Z,15.37
2019-05-18T02:05:16.863Z,14.43
2019-05-18T02:11:22.799Z,14.70
2019-05-18T02:17:28.562Z,12.60
2019-05-18T02:23:34.442Z,10.17
2019-05-18T02:29:40.193Z,10.13
2019-05-18T02:35:45.930Z,8.90
2019-05-18T02:41:51.704Z,9.97
2019-05-18T02:47:57.519Z,12.87
2019-05-18T02:54:03.367Z,14.07
2019-05-18T03:00:10.071Z,12.60
2019-05-18T03:06:15.882Z,13.50
2019-05-18T03:12:22.345Z,12.87
2019-05-18T03:18:28.306Z,13.87
2019-05-18T03:24:34.095Z,13.53
2019-05-18T03:30:39.953Z,12.87
2019-05-18T03:36:46.106Z,13.57
2019-05-18T03:42:52.158Z,12.97
2019-05-18T03:48:57.949Z,11.40
2019-05-18T03:55:03.917Z,12.57
2019-05-18T04:01:10.188Z,13.20
2019-05-18T04:07:16.044Z,12.63
2019-05-18T04:13:21.932Z,13.17
2019-05-18T04:19:44.790Z,14.17
2019-05-18T04:25:35.226Z,13.83
2019-05-18T04:31:40.987Z,13.70
2019-05-18T04:37:46.725Z,13.23
2019-05-18T04:43:52.809Z,12.73
2019-05-18T04:50:05.353Z,13.83
2019-05-18T04:56:06.566Z,12.50
2019-05-18T05:02:12.489Z,11.43
2019-05-18T05:08:18.341Z,11.97
2019-05-18T05:14:24.118Z,11.47
2019-05-18T05:20:30.029Z,12.97
2019-05-18T05:26:35.809Z,11.90
2019-05-18T05:32:41.593Z,11.80
2019-05-18T05:38:47.800Z,12.33
2019-05-18T05:44:53.684Z,12.03
2019-05-18T05:50:59.673Z,12.07
2019-05-18T05:57:05.733Z,11.57
2019-05-18T06:03:11.863Z,11.57
2019-05-18T06:09:17.772Z,11.93
2019-05-18T06:15:23.597Z,12.70
2019-05-18T06:21:29.908Z,12.07
2019-05-18T06:27:37.459Z,11.77
2019-05-18T06:33:43.739Z,12.50
2019-05-18T06:39:49.639Z,12.30
2019-05-18T06:45:55.831Z,12.77
2019-05-18T06:52:01.603Z,12.27
2019-05-18T06:58:07.742Z,11.73
2019-05-18T07:04:13.638Z,11.90
2019-05-18T07:10:19.555Z,12.10
2019-05-18T07:16:25.382Z,11.93
2019-05-18T07:22:32.433Z,11.97
2019-05-18T07:34:57.235Z,11.53
2019-05-18T07:41:03.167Z,11.07
2019-05-18T07:47:08.967Z,9.67
2019-05-18T07:53:15.131Z,9.37
2019-05-18T07:59:21.307Z,7.70
2019-05-18T08:05:27.119Z,7.83
2019-05-18T08:11:33.423Z,7.70
2019-05-18T08:17:40.895Z,7.60
2019-05-18T08:23:46.747Z,8.23
2019-05-18T08:29:52.919Z,7.63
2019-05-18T08:35:58.656Z,7.70
2019-05-18T08:42:04.430Z,7.87
2019-05-18T08:48:10.413Z,7.77
2019-05-18T08:54:16.192Z,8.33
2019-05-18T09:00:22.059Z,7.70
2019-05-18T09:06:28.052Z,7.90
2019-05-18T09:12:37.044Z,7.87
2019-05-18T09:18:42.862Z,7.83
2019-05-18T09:24:48.716Z,8.13
2019-05-18T09:30:54.523Z,7.83
2019-05-18T09:37:00.547Z,7.87
2019-05-18T09:43:06.437Z,7.03
2019-05-18T09:49:12.563Z,7.60
2019-05-18T09:55:18.522Z,6.40
2019-05-18T10:01:24.609Z,7.57
2019-05-18T10:07:30.412Z,7.53
2019-05-18T10:13:36.431Z,7.30
2019-05-18T10:19:42.475Z,6.27
2019-05-18T10:25:48.224Z,7.33
2019-05-18T10:31:54.248Z,6.97
2019-05-18T10:38:00.224Z,6.90
2019-05-18T10:44:05.946Z,6.10
2019-05-18T10:50:12.736Z,5.83
2019-05-18T10:56:19.688Z,5.63
2019-05-18T11:02:25.725Z,5.78
2019-05-18T11:08:32.077Z,4.70
2019-05-18T11:14:38.108Z,4.50
2019-05-18T11:20:44.071Z,4.97
2019-05-18T11:26:49.948Z,5.53
2019-05-18T11:32:55.681Z,4.53
2019-05-18T11:39:01.777Z,4.47
2019-05-18T11:45:09.853Z,4.78
2019-05-18T11:51:15.822Z,4.47
2019-05-18T11:57:23.347Z,4.10
2019-05-18T12:03:29.729Z,4.50
2019-05-18T12:09:35.610Z,4.58
2019-05-18T12:15:41.752Z,4.42
2019-05-18T12:21:47.653Z,4.20
2019-05-18T12:27:53.806Z,5.12
2019-05-18T12:34:01.552Z,4.28
2019-05-18T12:40:09.032Z,3.77
2019-05-18T12:46:15.463Z,3.85
2019-05-18T12:52:22.112Z,3.93
2019-05-18T12:58:28.182Z,3.07
2019-05-18T13:04:34.667Z,3.10
2019-05-18T13:10:41.149Z,2.93
2019-05-18T13:16:47.471Z,2.73
2019-05-18T13:22:54.124Z,2.80
2019-05-18T13:29:01.861Z,2.80
2019-05-18T13:35:08.556Z,2.07
2019-05-18T13:41:14.782Z,2.47
2019-05-18T13:47:21.051Z,2.03
2019-05-18T13:53:27.297Z,2.10
2019-05-18T13:59:33.551Z,2.20
2019-05-18T14:05:39.930Z,2.87
2019-05-18T14:11:46.066Z,2.97
2019-05-18T14:17:52.345Z,2.70
2019-05-18T14:23:58.664Z,2.70
2019-05-18T14:30:05.190Z,2.47
2019-05-18T14:36:11.287Z,3.03
2019-05-18T14:42:17.342Z,3.20
2019-05-18T14:48:23.521Z,2.70
2019-05-18T14:54:29.900Z,2.37
2019-05-18T15:00:36.003Z,2.30
2019-05-18T15:06:42.357Z,2.40
2019-05-18T15:12:48.706Z,2.30
2019-05-18T15:18:54.958Z,2.80
2019-05-18T15:25:01.023Z,3.55
2019-05-18T15:31:06.992Z,3.47
2019-05-18T15:37:12.990Z,2.80
2019-05-18T15:43:19.088Z,3.30
2019-05-18T15:49:25.086Z,3.10
2019-05-18T15:55:31.016Z,2.20
2019-05-18T16:01:37.347Z,2.93
2019-05-18T16:07:43.203Z,3.00
2019-05-18T16:13:49.135Z,2.70
2019-05-18T16:19:54.899Z,1.83
2019-05-18T16:26:00.678Z,4.20
2019-05-18T16:32:06.535Z,3.53
2019-05-18T16:38:13.017Z,2.33
2019-05-18T16:44:18.774Z,2.43
2019-05-18T16:50:24.598Z,2.10
2019-05-18T16:56:35.127Z,2.60
2019-05-18T17:02:37.946Z,2.20
2019-05-18T17:08:44.452Z,2.27
2019-05-18T17:14:50.328Z,2.23
2019-05-18T17:20:56.209Z,2.53
2019-05-18T17:27:01.999Z,2.00
2019-05-18T17:33:07.760Z,2.03
2019-05-18T17:39:13.515Z,2.10
2019-05-18T17:45:19.725Z,3.13
2019-05-18T17:51:25.515Z,3.23
2019-05-18T17:57:33.391Z,3.60
2019-05-18T18:03:39.245Z,3.40
2019-05-18T18:09:45.356Z,3.83
2019-05-18T18:15:51.355Z,3.53
2019-05-18T18:21:57.102Z,3.87
2019-05-18T18:28:02.931Z,4.77
2019-05-18T18:34:08.654Z,5.10
2019-05-18T18:40:14.418Z,4.97
2019-05-18T18:46:20.175Z,5.00
2019-05-18T18:52:26.267Z,6.13
2019-05-18T18:58:32.079Z,7.27
2019-05-18T19:04:38.006Z,6.97
2019-05-18T19:10:43.790Z,5.20
2019-05-18T19:16:49.745Z,4.60
2019-05-18T19:22:55.620Z,5.13
2019-05-18T19:29:01.617Z,6.00
2019-05-18T19:35:07.662Z,5.23
2019-05-18T19:41:13.507Z,6.90
2019-05-18T19:47:19.280Z,7.60
2019-05-18T19:53:25.078Z,6.67
2019-05-18T19:59:31.772Z,8.60
2019-05-18T20:05:39.832Z,9.40
2019-05-18T20:11:45.698Z,7.30
2019-05-18T20:17:51.547Z,7.67
2019-05-18T20:23:57.369Z,6.33
2019-05-18T20:30:03.193Z,7.40
2019-05-18T20:36:09.089Z,9.83
2019-05-18T20:42:14.992Z,9.63
2019-05-18T20:48:20.826Z,9.70
2019-05-18T20:54:26.977Z,10.17
2019-05-18T21:00:32.843Z,10.00
2019-05-18T21:06:39.104Z,11.90
2019-05-18T21:12:44.951Z,11.67
2019-05-18T21:18:50.818Z,11.33
2019-05-18T21:24:56.694Z,11.83
2019-05-18T21:31:02.655Z,11.40
2019-05-18T21:37:08.436Z,11.10
2019-05-18T21:43:14.476Z,11.90
2019-05-18T21:49:20.611Z,10.97
2019-05-18T21:55:26.432Z,11.67
2019-05-18T22:01:32.683Z,11.40
2019-05-18T22:07:39.437Z,11.97
2019-05-18T22:13:45.321Z,11.73
2019-05-18T22:19:51.238Z,11.43
2019-05-18T22:25:57.347Z,13.63
2019-05-18T22:32:03.488Z,17.03
2019-05-18T22:38:09.739Z,19.13
2019-05-18T22:44:15.725Z,19.57
2019-05-18T22:50:21.843Z,17.63
2019-05-18T22:56:27.717Z,22.87
2019-05-18T23:02:33.840Z,24.47
2019-05-18T23:08:40.155Z,26.13
2019-05-18T23:14:46.246Z,27.43
2019-05-18T23:20:52.131Z,27.00
2019-05-18T23:26:57.915Z,29.20
2019-05-18T23:33:04.100Z,29.97
2019-05-18T23:39:09.965Z,31.33
2019-05-18T23:45:16.094Z,30.47
2019-05-18T23:51:22.348Z,29.07
2019-05-18T23:57:28.294Z,25.73
